createdAt,value
2023-10-23T00:00:29.934Z,9.00
2023-10-23T00:03:00.970Z,9.00
2023-10-23T00:05:32.104Z,8.90
2023-10-23T00:08:03.333Z,8.90
2023-10-23T00:10:34.291Z,8.90
2023-10-23T00:13:05.289Z,8.80
2023-10-23T00:15:36.242Z,8.80
2023-10-23T00:18:07.267Z,8.80
2023-10-23T00:20:38.215Z,8.80
2023-10-23T00:23:09.241Z,8.80
2023-10-23T00:25:40.173Z,8.70
2023-10-23T00:28:11.073Z,8.70
2023-10-23T00:30:42.106Z,8.70
2023-10-23T00:33:13.216Z,8.70
2023-10-23T00:35:44.241Z,8.70
2023-10-23T00:38:15.135Z,8.60
2023-10-23T00:40:46.232Z,8.60
2023-10-23T00:43:23.452Z,8.60
2023-10-23T00:46:00.876Z,8.60
2023-10-23T00:48:34.043Z,8.50
2023-10-23T00:51:06.090Z,8.50
2023-10-23T00:53:40.144Z,8.60
2023-10-23T00:56:12.150Z,8.60
2023-10-23T00:58:44.163Z,8.60
2023-10-23T01:01:15.335Z,8.60
2023-10-23T01:03:46.571Z,8.60
2023-10-23T01:06:17.633Z,8.60
2023-10-23T01:08:48.656Z,8.70
2023-10-23T01:11:19.808Z,8.60
2023-10-23T01:13:50.770Z,8.60
2023-10-23T01:16:21.743Z,8.70
2023-10-23T01:18:52.733Z,8.70
2023-10-23T01:21:23.901Z,8.70
2023-10-23T01:23:56.232Z,8.60
2023-10-23T01:26:27.142Z,8.60
2023-10-23T01:28:58.053Z,8.60
2023-10-23T01:31:29.068Z,8.60
2023-10-23T01:34:00.023Z,8.60
2023-10-23T01:36:31.003Z,8.60
2023-10-23T01:39:01.961Z,8.40
2023-10-23T01:41:32.884Z,8.40
2023-10-23T01:44:03.907Z,8.40
2023-10-23T01:46:34.833Z,8.30
2023-10-23T01:49:05.869Z,8.40
2023-10-23T01:51:37.585Z,8.30
2023-10-23T01:54:08.629Z,8.30
2023-10-23T01:56:39.524Z,8.20
2023-10-23T01:59:10.452Z,8.10
2023-10-23T02:01:41.704Z,8.00
2023-10-23T02:04:12.836Z,8.00
2023-10-23T02:06:44.112Z,7.90
2023-10-23T02:09:15.071Z,7.90
2023-10-23T02:11:46.265Z,7.90
2023-10-23T02:14:17.186Z,7.90
2023-10-23T02:16:48.216Z,7.90
2023-10-23T02:19:19.143Z,7.90
2023-10-23T02:21:50.915Z,7.80
2023-10-23T02:24:22.110Z,7.80
2023-10-23T02:26:55.379Z,7.80
2023-10-23T02:29:26.341Z,7.70
2023-10-23T02:31:57.276Z,7.70
2023-10-23T02:34:28.258Z,7.60
2023-10-23T02:36:59.275Z,7.60
2023-10-23T02:39:30.341Z,7.50
2023-10-23T02:42:01.360Z,7.50
2023-10-23T02:44:32.321Z,7.50
2023-10-23T02:47:04.780Z,7.40
2023-10-23T02:49:35.697Z,7.50
2023-10-23T02:52:06.612Z,7.40
2023-10-23T02:54:37.668Z,7.40
2023-10-23T02:57:08.658Z,7.50
2023-10-23T02:59:39.773Z,7.50
2023-10-23T03:02:11.518Z,7.50
2023-10-23T03:04:42.549Z,7.50
2023-10-23T03:07:14.485Z,7.40
2023-10-23T03:09:45.525Z,7.50
2023-10-23T03:12:16.469Z,7.50
2023-10-23T03:14:47.482Z,7.40
2023-10-23T03:17:18.465Z,7.40
2023-10-23T03:19:49.441Z,7.50
2023-10-23T03:22:20.837Z,7.50
2023-10-23T03:24:52.181Z,7.50
2023-10-23T03:27:23.214Z,7.50
2023-10-23T03:29:54.190Z,7.50
2023-10-23T03:32:25.377Z,7.50
2023-10-23T03:34:58.424Z,7.40
2023-10-23T03:37:29.357Z,7.30
2023-10-23T03:40:00.364Z,7.20
2023-10-23T03:42:31.375Z,7.20
2023-10-23T03:45:02.359Z,7.20
2023-10-23T03:47:33.369Z,7.30
2023-10-23T03:50:05.431Z,7.30
2023-10-23T03:52:36.394Z,7.30
2023-10-23T03:55:07.886Z,7.30
2023-10-23T03:57:39.003Z,7.30
2023-10-23T04:00:12.023Z,7.30
2023-10-23T04:02:42.993Z,7.30
2023-10-23T04:05:14.311Z,7.20
2023-10-23T04:07:45.207Z,7.20
2023-10-23T04:10:16.200Z,7.10
2023-10-23T04:12:47.161Z,7.10
2023-10-23T04:15:18.260Z,7.10
2023-10-23T04:17:49.208Z,7.10
2023-10-23T04:20:20.362Z,7.00
2023-10-23T04:22:51.259Z,7.00
2023-10-23T04:25:22.252Z,7.10
2023-10-23T04:27:53.239Z,7.10
2023-10-23T04:30:24.145Z,7.10
2023-10-23T04:32:55.051Z,7.10
2023-10-23T04:35:26.013Z,7.10
2023-10-23T04:37:57.529Z,7.00
2023-10-23T04:40:28.429Z,7.00
2023-10-23T04:42:59.387Z,7.00
2023-10-23T04:45:30.415Z,6.90
2023-10-23T04:48:01.441Z,7.00
2023-10-23T04:50:37.326Z,6.90
2023-10-23T04:53:08.730Z,6.80
2023-10-23T04:55:41.775Z,6.90
2023-10-23T04:58:12.784Z,6.90
2023-10-23T05:00:45.587Z,6.90
2023-10-23T05:03:17.486Z,6.90
2023-10-23T05:05:52.471Z,6.90
2023-10-23T05:08:23.579Z,6.80
2023-10-23T05:10:54.521Z,6.90
2023-10-23T05:13:26.472Z,6.90
2023-10-23T05:16:07.155Z,6.90
2023-10-23T05:18:38.361Z,6.90
2023-10-23T05:21:13.916Z,6.90
2023-10-23T05:23:44.953Z,6.80
2023-10-23T05:26:16.250Z,6.80
2023-10-23T05:28:47.945Z,6.70
2023-10-23T05:31:19.636Z,6.60
2023-10-23T05:33:51.159Z,6.60
2023-10-23T05:36:22.212Z,6.60
2023-10-23T05:38:53.198Z,6.50
2023-10-23T05:41:24.225Z,6.60
2023-10-23T05:43:55.168Z,6.50
2023-10-23T05:46:26.278Z,6.60
2023-10-23T05:48:57.449Z,6.60
2023-10-23T05:51:28.519Z,6.60
2023-10-23T05:53:59.527Z,6.60
2023-10-23T05:56:31.190Z,6.70
2023-10-23T05:59:02.112Z,6.60
2023-10-23T06:01:33.320Z,6.60
2023-10-23T06:04:05.495Z,6.70
2023-10-23T06:06:36.588Z,6.70
2023-10-23T06:09:07.555Z,6.80
2023-10-23T06:11:38.493Z,6.80
2023-10-23T06:14:09.455Z,6.80
2023-10-23T06:16:40.470Z,6.90
2023-10-23T06:19:11.408Z,6.90
2023-10-23T06:21:42.677Z,7.00
2023-10-23T06:24:13.617Z,7.10
2023-10-23T06:26:44.869Z,7.10
2023-10-23T06:29:15.994Z,7.00
2023-10-23T06:31:47.022Z,7.10
2023-10-23T06:34:18.070Z,7.20
2023-10-23T06:36:49.121Z,7.20
2023-10-23T06:39:20.126Z,7.30
2023-10-23T06:41:51.816Z,7.30
2023-10-23T06:44:23.283Z,7.40
2023-10-23T06:46:54.646Z,7.40
2023-10-23T06:49:25.658Z,7.50
2023-10-23T06:51:56.770Z,7.50
2023-10-23T06:54:28.953Z,7.50
2023-10-23T06:56:59.964Z,7.50
2023-10-23T06:59:30.996Z,7.60
2023-10-23T07:02:02.187Z,7.60
2023-10-23T07:04:33.234Z,7.70
2023-10-23T07:07:14.563Z,7.80
2023-10-23T07:09:57.841Z,7.80
2023-10-23T07:12:28.994Z,7.80
2023-10-23T07:15:00.173Z,8.80
2023-10-23T07:17:31.366Z,9.80
2023-10-23T07:20:02.382Z,10.30
2023-10-23T07:22:33.770Z,10.40
2023-10-23T07:25:05.426Z,10.60
2023-10-23T07:27:36.417Z,10.10
2023-10-23T07:30:08.637Z,10.00
2023-10-23T07:32:39.635Z,9.70
2023-10-23T07:35:10.622Z,9.40
2023-10-23T07:37:41.566Z,9.30
2023-10-23T07:40:12.990Z,9.30
2023-10-23T07:42:44.067Z,9.20
2023-10-23T07:45:15.009Z,8.90
2023-10-23T07:47:45.992Z,8.90
2023-10-23T07:50:17.275Z,9.00
2023-10-23T07:52:48.265Z,9.00
2023-10-23T07:55:19.201Z,9.10
2023-10-23T07:57:50.213Z,9.20
2023-10-23T08:00:21.236Z,9.10
2023-10-23T08:02:52.219Z,9.00
2023-10-23T08:05:23.664Z,9.10
2023-10-23T08:07:55.109Z,9.20
2023-10-23T08:10:26.158Z,9.30
2023-10-23T08:12:57.277Z,9.20
2023-10-23T08:15:28.519Z,9.30
2023-10-23T08:18:00.203Z,9.50
2023-10-23T08:20:32.283Z,9.40
2023-10-23T08:23:03.274Z,9.40
2023-10-23T08:25:34.183Z,9.50
2023-10-23T08:28:05.703Z,9.50
2023-10-23T08:30:36.980Z,9.50
2023-10-23T08:33:08.677Z,9.50
2023-10-23T08:35:39.741Z,9.70
2023-10-23T08:38:10.680Z,9.80
2023-10-23T08:40:42.763Z,9.90
2023-10-23T08:43:13.947Z,10.00
2023-10-23T08:45:45.835Z,10.00
2023-10-23T08:48:16.805Z,9.80
2023-10-23T08:50:48.241Z,9.80
2023-10-23T08:53:23.946Z,9.90
2023-10-23T08:55:55.661Z,10.10
2023-10-23T08:58:30.657Z,10.10
2023-10-23T09:01:01.681Z,10.20
2023-10-23T09:04:04.408Z,10.40
2023-10-23T09:06:24.989Z,10.50
2023-10-23T09:08:56.331Z,10.60
2023-10-23T09:11:47.344Z,10.50
2023-10-23T09:14:36.931Z,10.50
2023-10-23T09:17:08.855Z,10.40
2023-10-23T09:19:42.116Z,10.40
2023-10-23T09:22:13.673Z,10.50
2023-10-23T09:24:46.539Z,10.60
2023-10-23T09:27:23.765Z,10.80
2023-10-23T09:30:02.165Z,10.90
2023-10-23T09:32:33.723Z,10.80
2023-10-23T09:35:12.107Z,10.80
2023-10-23T09:37:44.168Z,10.90
2023-10-23T09:40:18.083Z,11.00
2023-10-23T09:42:49.293Z,11.00
2023-10-23T09:45:22.567Z,11.10
2023-10-23T09:47:59.991Z,11.20
2023-10-23T09:50:32.650Z,11.20
2023-10-23T09:53:05.284Z,11.10
2023-10-23T09:55:37.534Z,11.00
2023-10-23T09:58:18.122Z,11.00
2023-10-23T10:00:50.010Z,11.10
2023-10-23T10:03:25.359Z,11.10
2023-10-23T10:06:04.981Z,11.10
2023-10-23T10:08:39.028Z,11.20
2023-10-23T10:11:10.790Z,11.30
2023-10-23T10:13:42.005Z,11.30
2023-10-23T10:16:14.685Z,11.40
2023-10-23T10:18:46.742Z,11.40
2023-10-23T10:21:22.740Z,11.30
2023-10-23T10:23:54.037Z,11.40
2023-10-23T10:26:25.291Z,11.40
2023-10-23T10:28:56.580Z,11.40
2023-10-23T10:31:28.397Z,11.50
2023-10-23T10:34:25.986Z,11.60
2023-10-23T10:36:50.822Z,11.50
2023-10-23T10:39:21.814Z,11.50
2023-10-23T10:41:52.864Z,11.50
2023-10-23T10:44:23.950Z,11.60
2023-10-23T10:46:56.597Z,11.60
2023-10-23T10:49:33.004Z,11.60
2023-10-23T10:52:31.770Z,11.70
2023-10-23T10:55:10.249Z,11.80
2023-10-23T10:57:44.336Z,12.00
2023-10-23T11:00:16.336Z,12.00
2023-10-23T11:02:47.415Z,12.10
2023-10-23T11:05:18.517Z,11.90
2023-10-23T11:07:51.371Z,11.90
2023-10-23T11:10:22.944Z,11.90
2023-10-23T11:12:54.792Z,12.00
2023-10-23T11:15:25.723Z,12.10
2023-10-23T11:17:57.048Z,12.10
2023-10-23T11:20:32.264Z,12.00
2023-10-23T11:23:03.713Z,12.00
2023-10-23T11:25:35.682Z,12.00
2023-10-23T11:28:07.309Z,12.00
2023-10-23T11:30:51.066Z,11.90
2023-10-23T11:33:22.143Z,12.00
2023-10-23T11:35:54.268Z,12.00
2023-10-23T11:38:25.751Z,12.10
2023-10-23T11:40:56.668Z,12.30
2023-10-23T11:43:27.717Z,12.40
2023-10-23T11:45:59.416Z,12.40
2023-10-23T11:48:30.451Z,12.40
2023-10-23T11:51:01.669Z,12.30
2023-10-23T11:53:34.318Z,12.20
2023-10-23T11:56:06.839Z,12.20
2023-10-23T11:58:37.795Z,12.30
2023-10-23T12:01:08.830Z,12.40
2023-10-23T12:03:40.168Z,12.50
2023-10-23T12:06:11.166Z,12.60
2023-10-23T12:08:43.252Z,12.70
2023-10-23T12:11:14.194Z,12.60
2023-10-23T12:13:45.163Z,12.50
2023-10-23T12:16:16.245Z,12.50
2023-10-23T12:18:47.231Z,12.60
2023-10-23T12:21:19.870Z,12.60
2023-10-23T12:23:50.894Z,12.60
2023-10-23T12:26:22.591Z,12.50
2023-10-23T12:28:53.635Z,12.50
2023-10-23T12:31:25.117Z,12.50
2023-10-23T12:33:56.286Z,12.50
2023-10-23T12:36:34.040Z,12.50
2023-10-23T12:39:07.241Z,12.60
2023-10-23T12:41:38.200Z,12.70
2023-10-23T12:44:09.222Z,12.70
2023-10-23T12:46:40.283Z,12.70
2023-10-23T12:49:12.423Z,12.70
2023-10-23T12:51:43.654Z,12.60
2023-10-23T12:54:14.793Z,12.70
2023-10-23T12:56:45.749Z,12.70
2023-10-23T12:59:16.660Z,12.70
2023-10-23T13:01:47.767Z,12.70
2023-10-23T13:04:22.738Z,12.70
2023-10-23T13:06:56.274Z,12.70
2023-10-23T13:09:27.216Z,12.70
2023-10-23T13:11:58.290Z,12.80
2023-10-23T13:14:29.176Z,12.80
2023-10-23T13:17:00.292Z,12.90
2023-10-23T13:19:31.447Z,12.80
2023-10-23T13:22:02.429Z,12.90
2023-10-23T13:24:43.867Z,12.90
2023-10-23T13:27:16.492Z,13.00
2023-10-23T13:29:47.462Z,13.00
2023-10-23T13:32:18.373Z,13.10
2023-10-23T13:34:49.393Z,13.00
2023-10-23T13:37:21.127Z,13.00
2023-10-23T13:39:52.177Z,13.00
2023-10-23T13:42:23.225Z,13.10
2023-10-23T13:44:54.150Z,13.20
2023-10-23T13:47:25.080Z,13.20
2023-10-23T13:49:58.496Z,13.10
2023-10-23T13:52:29.540Z,13.10
2023-10-23T13:55:00.596Z,13.10
2023-10-23T13:57:31.740Z,13.10
2023-10-23T14:00:02.734Z,13.20
2023-10-23T14:02:33.739Z,13.20
2023-10-23T14:05:05.613Z,13.30
2023-10-23T14:07:37.528Z,13.40
2023-10-23T14:10:08.943Z,13.30
2023-10-23T14:12:39.856Z,13.30
2023-10-23T14:15:11.608Z,13.30
2023-10-23T14:17:42.573Z,13.30
2023-10-23T14:20:13.978Z,13.30
2023-10-23T14:22:44.922Z,13.30
2023-10-23T14:25:16.157Z,13.40
2023-10-23T14:27:47.307Z,13.60
2023-10-23T14:30:18.199Z,13.80
2023-10-23T14:32:49.165Z,13.90
2023-10-23T14:35:21.630Z,13.90
2023-10-23T14:37:55.482Z,13.80
2023-10-23T14:40:26.736Z,13.70
2023-10-23T14:42:58.481Z,13.80
2023-10-23T14:45:30.033Z,13.80
2023-10-23T14:48:01.592Z,13.70
2023-10-23T14:50:32.770Z,13.70
2023-10-23T14:53:04.217Z,13.70
2023-10-23T14:55:35.197Z,13.60
2023-10-23T14:58:06.201Z,13.60
2023-10-23T15:00:42.661Z,13.60
2023-10-23T15:03:13.762Z,13.70
2023-10-23T15:05:44.765Z,13.70
2023-10-23T15:08:15.742Z,13.70
2023-10-23T15:10:46.778Z,13.80
2023-10-23T15:13:17.745Z,13.80
2023-10-23T15:15:58.297Z,13.70
2023-10-23T15:18:29.316Z,13.70
2023-10-23T15:21:05.387Z,13.60
2023-10-23T15:23:36.353Z,13.50
2023-10-23T15:26:07.485Z,13.50
2023-10-23T15:28:39.533Z,13.50
2023-10-23T15:31:11.890Z,13.60
2023-10-23T15:33:42.919Z,13.60
2023-10-23T15:36:13.898Z,13.40
2023-10-23T15:38:44.879Z,13.40
2023-10-23T15:41:15.899Z,13.40
2023-10-23T15:43:48.706Z,13.50
2023-10-23T15:46:20.048Z,13.40
2023-10-23T15:48:51.984Z,13.30
2023-10-23T15:51:22.978Z,13.30
2023-10-23T15:53:54.344Z,13.30
2023-10-23T15:56:25.426Z,13.40
2023-10-23T15:58:56.815Z,13.50
2023-10-23T16:01:28.566Z,13.40
2023-10-23T16:04:00.569Z,13.30
2023-10-23T16:06:33.045Z,13.40
2023-10-23T16:09:22.321Z,13.40
2023-10-23T16:12:09.267Z,13.50
2023-10-23T16:14:56.125Z,13.50
2023-10-23T16:17:29.267Z,13.40
2023-10-23T16:20:00.277Z,13.30
2023-10-23T16:22:31.198Z,13.30
2023-10-23T16:25:03.029Z,13.20
2023-10-23T16:27:35.398Z,13.20
2023-10-23T16:30:11.155Z,13.20
2023-10-23T16:32:42.318Z,13.20
2023-10-23T16:35:13.393Z,13.10
2023-10-23T16:37:44.283Z,13.10
2023-10-23T16:40:15.388Z,13.00
2023-10-23T16:42:47.264Z,13.00
2023-10-23T16:45:18.666Z,13.00
2023-10-23T16:47:50.728Z,12.90
2023-10-23T16:50:22.934Z,12.90
2023-10-23T16:52:53.895Z,13.00
2023-10-23T16:55:26.241Z,13.10
2023-10-23T16:58:00.404Z,13.00
2023-10-23T17:00:31.420Z,13.00
2023-10-23T17:03:03.059Z,13.00
2023-10-23T17:05:36.903Z,13.00
2023-10-23T17:08:13.785Z,13.00
2023-10-23T17:10:44.721Z,13.00
2023-10-23T17:13:15.734Z,13.00
2023-10-23T17:15:46.684Z,13.00
2023-10-23T17:18:17.994Z,12.90
2023-10-23T17:20:49.134Z,13.00
2023-10-23T17:23:20.172Z,13.00
2023-10-23T17:25:51.158Z,13.00
2023-10-23T17:28:22.199Z,13.00
2023-10-23T17:31:00.259Z,13.00
2023-10-23T17:33:32.234Z,13.00
2023-10-23T17:36:03.914Z,13.00
2023-10-23T17:38:37.996Z,12.90
2023-10-23T17:41:16.753Z,13.00
2023-10-23T17:43:47.935Z,12.90
2023-10-23T17:46:19.660Z,13.00
2023-10-23T17:48:53.014Z,12.90
2023-10-23T17:51:23.980Z,13.00
2023-10-23T17:54:04.841Z,13.00
2023-10-23T17:56:38.146Z,13.00
2023-10-23T17:59:09.221Z,13.00
2023-10-23T18:01:46.175Z,13.00
2023-10-23T18:04:17.249Z,13.00
2023-10-23T18:06:48.317Z,13.00
2023-10-23T18:09:19.293Z,13.00
2023-10-23T18:11:50.214Z,13.00
2023-10-23T18:14:22.049Z,13.00
2023-10-23T18:16:53.188Z,13.10
2023-10-23T18:19:24.238Z,13.10
2023-10-23T18:21:56.440Z,13.20
2023-10-23T18:24:27.481Z,13.10
2023-10-23T18:26:59.315Z,13.10
2023-10-23T18:29:31.248Z,13.10
2023-10-23T18:32:02.576Z,13.00
2023-10-23T18:34:37.508Z,13.00
2023-10-23T18:37:08.849Z,13.00
2023-10-23T18:39:41.255Z,13.00
2023-10-23T18:42:12.455Z,13.10
2023-10-23T18:44:44.702Z,13.20
2023-10-23T18:47:19.457Z,13.20
2023-10-23T18:49:52.609Z,13.10
2023-10-23T18:52:23.680Z,13.20
2023-10-23T18:54:54.645Z,13.30
2023-10-23T18:57:25.702Z,13.20
2023-10-23T18:59:58.651Z,13.20
2023-10-23T19:02:29.709Z,13.10
2023-10-23T19:05:00.789Z,13.10
2023-10-23T19:07:31.841Z,13.10
2023-10-23T19:10:05.628Z,13.10
2023-10-23T19:12:37.056Z,13.10
2023-10-23T19:15:09.074Z,13.20
2023-10-23T19:17:41.322Z,13.20
2023-10-23T19:20:14.093Z,13.20
2023-10-23T19:22:45.097Z,13.20
2023-10-23T19:25:18.107Z,13.30
2023-10-23T19:27:49.742Z,13.30
2023-10-23T19:30:22.587Z,13.20
2023-10-23T19:32:54.162Z,13.20
2023-10-23T19:35:26.386Z,13.20
2023-10-23T19:37:57.735Z,13.20
2023-10-23T19:40:29.638Z,13.20
2023-10-23T19:43:14.827Z,13.20
2023-10-23T19:45:46.247Z,13.30
2023-10-23T19:48:17.707Z,13.40
2023-10-23T19:50:50.169Z,13.40
2023-10-23T19:53:22.189Z,13.40
2023-10-23T19:55:54.242Z,13.50
2023-10-23T19:58:25.514Z,13.50
2023-10-23T20:00:57.339Z,13.40
2023-10-23T20:03:29.067Z,13.40
2023-10-23T20:06:00.655Z,13.30
2023-10-23T20:08:31.732Z,13.30
2023-10-23T20:11:02.697Z,13.20
2023-10-23T20:13:33.742Z,13.20
2023-10-23T20:16:05.854Z,13.20
2023-10-23T20:18:37.314Z,13.20
2023-10-23T20:21:08.429Z,13.20
2023-10-23T20:23:39.440Z,13.20
2023-10-23T20:26:16.296Z,13.10
2023-10-23T20:28:49.030Z,13.10
2023-10-23T20:31:20.298Z,13.10
2023-10-23T20:33:51.271Z,13.10
2023-10-23T20:36:23.176Z,13.00
2023-10-23T20:38:54.158Z,13.10
2023-10-23T20:41:25.072Z,13.10
2023-10-23T20:43:56.018Z,13.00
2023-10-23T20:46:27.196Z,13.00
2023-10-23T20:48:58.383Z,13.00
2023-10-23T20:51:29.281Z,13.00
2023-10-23T20:54:00.198Z,13.00
2023-10-23T20:56:31.148Z,13.00
2023-10-23T20:59:03.093Z,13.00
2023-10-23T21:01:34.895Z,12.90
2023-10-23T21:04:06.144Z,13.00
2023-10-23T21:06:37.574Z,13.00
2023-10-23T21:09:10.454Z,13.10
2023-10-23T21:11:41.393Z,13.20
2023-10-23T21:14:12.321Z,13.20
2023-10-23T21:16:43.642Z,13.10
2023-10-23T21:19:18.932Z,13.10
2023-10-23T21:21:50.152Z,13.00
2023-10-23T21:24:21.401Z,13.00
2023-10-23T21:26:52.485Z,13.00
2023-10-23T21:29:24.720Z,12.90
2023-10-23T21:31:55.732Z,13.00
2023-10-23T21:34:27.871Z,12.90
2023-10-23T21:36:59.011Z,12.90
2023-10-23T21:39:31.415Z,12.90
2023-10-23T21:42:02.436Z,13.00
2023-10-23T21:44:33.396Z,13.00
2023-10-23T21:47:05.324Z,13.00
2023-10-23T21:49:37.436Z,13.10
2023-10-23T21:52:09.187Z,13.20
2023-10-23T21:54:41.426Z,13.10
2023-10-23T21:57:19.866Z,13.10
2023-10-23T21:59:53.491Z,13.10
2023-10-23T22:02:26.183Z,13.00
2023-10-23T22:04:57.445Z,13.10
2023-10-23T22:07:28.826Z,13.00
2023-10-23T22:10:00.242Z,13.00
2023-10-23T22:12:31.600Z,13.20
2023-10-23T22:15:02.570Z,13.20
2023-10-23T22:17:33.766Z,13.20
2023-10-23T22:20:05.924Z,13.20
2023-10-23T22:22:36.923Z,13.20
2023-10-23T22:25:09.413Z,13.10
2023-10-23T22:27:40.430Z,13.10
2023-10-23T22:30:12.378Z,13.10
2023-10-23T22:32:43.331Z,13.00
2023-10-23T22:35:14.441Z,13.00
2023-10-23T22:38:01.325Z,13.00
2023-10-23T22:40:37.457Z,12.90
2023-10-23T22:43:08.680Z,13.00
2023-10-23T22:45:51.272Z,13.00
2023-10-23T22:48:30.984Z,13.00
2023-10-23T22:51:02.565Z,13.00
2023-10-23T22:53:36.797Z,13.00
2023-10-23T22:56:09.728Z,13.00
2023-10-23T22:58:42.643Z,13.00
2023-10-23T23:01:14.046Z,13.00
2023-10-23T23:03:45.466Z,13.00
2023-10-23T23:06:20.192Z,13.00
2023-10-23T23:08:53.258Z,13.00
2023-10-23T23:11:24.961Z,13.00
2023-10-23T23:13:57.343Z,13.10
2023-10-23T23:16:31.991Z,13.00
2023-10-23T23:19:05.261Z,13.00
2023-10-23T23:21:43.139Z,12.90
2023-10-23T23:24:14.096Z,12.90
2023-10-23T23:26:45.044Z,12.80
2023-10-23T23:29:15.966Z,12.90
2023-10-23T23:31:46.970Z,12.90
2023-10-23T23:34:18.005Z,12.90
2023-10-23T23:36:48.958Z,12.90
2023-10-23T23:39:19.900Z,13.00
2023-10-23T23:41:50.878Z,12.90
2023-10-23T23:44:21.930Z,12.90
2023-10-23T23:46:53.261Z,12.80
2023-10-23T23:49:24.986Z,12.80
2023-10-23T23:51:55.981Z,12.80
2023-10-23T23:54:26.899Z,12.90
2023-10-23T23:56:57.839Z,12.80
2023-10-23T23:59:28.777Z,12.80
